sensor_id;sensor_type;location;lat;lon;timestamp;pressure;altitude;pressure_sealevel;temperature;humidity
10718;BME280;13513;42.700;23.124;2023-08-17T00:01:11;93062.71;;;19.69;100.00
10718;BME280;13513;42.700;23.124;2023-08-17T00:03:38;93069.52;;;19.64;100.00
10718;BME280;13513;42.700;23.124;2023-08-17T00:06:06;93067.56;;;19.67;100.00
10718;BME280;13513;42.700;23.124;2023-08-17T00:08:33;93069.60;;;19.73;100.00
10718;BME280;13513;42.700;23.124;2023-08-17T00:11:00;93068.26;;;19.73;100.00
10718;BME280;13513;42.700;23.124;2023-08-17T00:13:28;93071.75;;;19.73;100.00
10718;BME280;13513;42.700;23.124;2023-08-17T00:15:55;93066.92;;;19.73;100.00
10718;BME280;13513;42.700;23.124;2023-08-17T00:18:23;93064.98;;;19.76;100.00
10718;BME280;13513;42.700;23.124;2023-08-17T00:20:50;93068.20;;;19.75;100.00
10718;BME280;13513;42.700;23.124;2023-08-17T00:23:18;93067.61;;;19.78;100.00
10718;BME280;13513;42.700;23.124;2023-08-17T00:25:48;93070.80;;;19.67;100.00
10718;BME280;13513;42.700;23.124;2023-08-17T00:28:15;93071.69;;;19.76;100.00
10718;BME280;13513;42.700;23.124;2023-08-17T00:30:42;93068.77;;;19.75;100.00
10718;BME280;13513;42.700;23.124;2023-08-17T00:33:10;93068.61;;;19.68;100.00
10718;BME280;13513;42.700;23.124;2023-08-17T00:35:37;93067.73;;;19.73;100.00
10718;BME280;13513;42.700;23.124;2023-08-17T00:38:05;93068.02;;;19.72;100.00
10718;BME280;13513;42.700;23.124;2023-08-17T00:40:32;93065.69;;;19.81;100.00
10718;BME280;13513;42.700;23.124;2023-08-17T00:43:00;93064.05;;;19.83;100.00
10718;BME280;13513;42.700;23.124;2023-08-17T00:45:27;93060.08;;;19.80;100.00
10718;BME280;13513;42.700;23.124;2023-08-17T00:47:56;93064.05;;;19.83;100.00
10718;BME280;13513;42.700;23.124;2023-08-17T00:50:25;93060.08;;;19.67;100.00
10718;BME280;13513;42.700;23.124;2023-08-17T00:52:54;93056.78;;;19.56;100.00
10718;BME280;13513;42.700;23.124;2023-08-17T00:55:23;93056.19;;;19.45;100.00
10718;BME280;13513;42.700;23.124;2023-08-17T00:57:52;93061.11;;;19.41;100.00
10718;BME280;13513;42.700;23.124;2023-08-17T01:00:20;93063.73;;;19.30;100.00
10718;BME280;13513;42.700;23.124;2023-08-17T01:02:48;93063.55;;;19.24;100.00
10718;BME280;13513;42.700;23.124;2023-08-17T01:05:15;93060.34;;;19.24;100.00
10718;BME280;13513;42.700;23.124;2023-08-17T01:07:43;92998.86;;;18.85;100.00
10718;BME280;13513;42.700;23.124;2023-08-17T01:10:10;93064.79;;;19.29;100.00
10718;BME280;13513;42.700;23.124;2023-08-17T01:12:57;93061.05;;;19.30;100.00
10718;BME280;13513;42.700;23.124;2023-08-17T01:15:31;93057.50;;;19.16;100.00
10718;BME280;13513;42.700;23.124;2023-08-17T01:18:04;93055.53;;;19.21;100.00
10718;BME280;13513;42.700;23.124;2023-08-17T01:20:28;93053.73;;;19.17;100.00
10718;BME280;13513;42.700;23.124;2023-08-17T01:23:07;93056.68;;;19.18;100.00
10718;BME280;13513;42.700;23.124;2023-08-17T01:38:09;93035.04;;;19.57;100.00
10718;BME280;13513;42.700;23.124;2023-08-17T01:40:33;93043.30;;;19.61;100.00
10718;BME280;13513;42.700;23.124;2023-08-17T01:43:02;93046.73;;;19.50;100.00
10718;BME280;13513;42.700;23.124;2023-08-17T01:45:30;93043.13;;;19.41;100.00
10718;BME280;13513;42.700;23.124;2023-08-17T01:47:58;93046.95;;;19.38;100.00
10718;BME280;13513;42.700;23.124;2023-08-17T01:50:26;93051.20;;;19.25;100.00
10718;BME280;13513;42.700;23.124;2023-08-17T01:52:53;93058.31;;;19.16;100.00
10718;BME280;13513;42.700;23.124;2023-08-17T01:55:21;93057.50;;;19.16;100.00
10718;BME280;13513;42.700;23.124;2023-08-17T01:57:53;93053.73;;;19.17;100.00
10718;BME280;13513;42.700;23.124;2023-08-17T02:00:20;93049.86;;;19.09;100.00
10718;BME280;13513;42.700;23.124;2023-08-17T02:02:48;93050.78;;;19.02;100.00
10718;BME280;13513;42.700;23.124;2023-08-17T02:05:15;93051.33;;;18.70;100.00
10718;BME280;13513;42.700;23.124;2023-08-17T02:07:43;93049.50;;;18.68;100.00
10718;BME280;13513;42.700;23.124;2023-08-17T02:10:10;93046.48;;;18.72;100.00
10718;BME280;13513;42.700;23.124;2023-08-17T02:12:38;93048.59;;;18.72;100.00
10718;BME280;13513;42.700;23.124;2023-08-17T02:15:06;93044.81;;;18.76;100.00
10718;BME280;13513;42.700;23.124;2023-08-17T02:17:33;93048.54;;;18.77;100.00
10718;BME280;13513;42.700;23.124;2023-08-17T02:20:01;93045.05;;;18.77;100.00
10718;BME280;13513;42.700;23.124;2023-08-17T02:22:30;93046.11;;;18.78;100.00
10718;BME280;13513;42.700;23.124;2023-08-17T02:24:57;93051.70;;;18.79;100.00
10718;BME280;13513;42.700;23.124;2023-08-17T02:27:25;93050.66;;;18.78;100.00
10718;BME280;13513;42.700;23.124;2023-08-17T02:29:52;93039.99;;;18.75;100.00
10718;BME280;13513;42.700;23.124;2023-08-17T02:32:19;93046.97;;;18.74;100.00
10718;BME280;13513;42.700;23.124;2023-08-17T02:34:47;93049.16;;;18.72;100.00
10718;BME280;13513;42.700;23.124;2023-08-17T02:37:14;93048.16;;;18.68;100.00
10718;BME280;13513;42.700;23.124;2023-08-17T02:39:42;93047.17;;;18.61;100.00
10718;BME280;13513;42.700;23.124;2023-08-17T02:42:09;93045.24;;;18.48;100.00
10718;BME280;13513;42.700;23.124;2023-08-17T02:44:37;93046.01;;;18.51;100.00
10718;BME280;13513;42.700;23.124;2023-08-17T02:47:04;93041.52;;;18.47;100.00
10718;BME280;13513;42.700;23.124;2023-08-17T02:49:32;93045.05;;;18.42;100.00
10718;BME280;13513;42.700;23.124;2023-08-17T02:51:59;93049.78;;;18.29;100.00
10718;BME280;13513;42.700;23.124;2023-08-17T02:54:27;93037.49;;;18.28;100.00
10718;BME280;13513;42.700;23.124;2023-08-17T02:56:54;93043.89;;;18.30;100.00
10718;BME280;13513;42.700;23.124;2023-08-17T02:59:22;93045.72;;;18.32;100.00
10718;BME280;13513;42.700;23.124;2023-08-17T03:01:49;93040.65;;;18.33;100.00
10718;BME280;13513;42.700;23.124;2023-08-17T03:04:16;93041.70;;;18.34;100.00
10718;BME280;13513;42.700;23.124;2023-08-17T03:06:44;93043.02;;;18.37;100.00
10718;BME280;13513;42.700;23.124;2023-08-17T03:09:11;93045.19;;;18.32;100.00
10718;BME280;13513;42.700;23.124;2023-08-17T03:11:39;93051.88;;;18.32;100.00
10718;BME280;13513;42.700;23.124;2023-08-17T03:14:06;93048.44;;;18.29;100.00
10718;BME280;13513;42.700;23.124;2023-08-17T03:16:34;93043.13;;;18.27;100.00
10718;BME280;13513;42.700;23.124;2023-08-17T03:19:01;93045.59;;;18.23;100.00
10718;BME280;13513;42.700;23.124;2023-08-17T03:21:29;93053.88;;;18.24;100.00
10718;BME280;13513;42.700;23.124;2023-08-17T03:23:56;93047.19;;;18.24;100.00
10718;BME280;13513;42.700;23.124;2023-08-17T03:26:23;93040.25;;;18.23;100.00
10718;BME280;13513;42.700;23.124;2023-08-17T03:28:51;93049.90;;;18.22;100.00
10718;BME280;13513;42.700;23.124;2023-08-17T03:31:23;93044.03;;;18.20;100.00
10718;BME280;13513;42.700;23.124;2023-08-17T03:33:50;93045.41;;;18.17;100.00
10718;BME280;13513;42.700;23.124;2023-08-17T03:36:18;93052.70;;;18.12;100.00
10718;BME280;13513;42.700;23.124;2023-08-17T03:38:45;93054.33;;;18.10;100.00
10718;BME280;13513;42.700;23.124;2023-08-17T03:41:12;93053.43;;;17.99;100.00
10718;BME280;13513;42.700;23.124;2023-08-17T03:43:40;93047.07;;;17.92;100.00
10718;BME280;13513;42.700;23.124;2023-08-17T03:46:07;93049.86;;;17.85;100.00
10718;BME280;13513;42.700;23.124;2023-08-17T03:48:35;93054.36;;;17.89;100.00
10718;BME280;13513;42.700;23.124;2023-08-17T03:51:02;93053.06;;;17.84;100.00
10718;BME280;13513;42.700;23.124;2023-08-17T03:53:30;93058.65;;;17.88;100.00
10718;BME280;13513;42.700;23.124;2023-08-17T03:55:58;93058.58;;;17.93;100.00
10718;BME280;13513;42.700;23.124;2023-08-17T03:58:25;93063.24;;;18.03;100.00
10718;BME280;13513;42.700;23.124;2023-08-17T04:00:54;93061.02;;;18.10;100.00
10718;BME280;13513;42.700;23.124;2023-08-17T04:03:22;93061.02;;;18.10;100.00
10718;BME280;13513;42.700;23.124;2023-08-17T04:05:49;93062.51;;;18.19;100.00
10718;BME280;13513;42.700;23.124;2023-08-17T04:08:17;93068.14;;;18.17;100.00
10718;BME280;13513;42.700;23.124;2023-08-17T04:10:44;93068.95;;;18.18;100.00
10718;BME280;13513;42.700;23.124;2023-08-17T04:13:12;93066.36;;;18.29;100.00
10718;BME280;13513;42.700;23.124;2023-08-17T04:15:39;93069.92;;;18.24;100.00
10718;BME280;13513;42.700;23.124;2023-08-17T04:18:06;93071.80;;;18.45;100.00
10718;BME280;13513;42.700;23.124;2023-08-17T04:20:34;93072.53;;;18.48;100.00
10718;BME280;13513;42.700;23.124;2023-08-17T04:23:01;93069.90;;;18.45;100.00
10718;BME280;13513;42.700;23.124;2023-08-17T04:25:29;93073.81;;;18.53;100.00
10718;BME280;13513;42.700;23.124;2023-08-17T04:27:56;93069.35;;;18.80;100.00
10718;BME280;13513;42.700;23.124;2023-08-17T04:30:24;93066.05;;;19.02;100.00
10718;BME280;13513;42.700;23.124;2023-08-17T04:32:51;93068.64;;;19.23;100.00
10718;BME280;13513;42.700;23.124;2023-08-17T04:35:19;93064.81;;;19.42;100.00
10718;BME280;13513;42.700;23.124;2023-08-17T04:37:47;93062.76;;;19.53;100.00
10718;BME280;13513;42.700;23.124;2023-08-17T04:40:15;93068.12;;;19.94;100.00
10718;BME280;13513;42.700;23.124;2023-08-17T04:42:43;93069.28;;;20.28;100.00
10718;BME280;13513;42.700;23.124;2023-08-17T04:45:10;93069.35;;;20.61;100.00
10718;BME280;13513;42.700;23.124;2023-08-17T04:47:39;93067.23;;;20.83;100.00
10718;BME280;13513;42.700;23.124;2023-08-17T04:50:07;93064.14;;;21.22;100.00
10718;BME280;13513;42.700;23.124;2023-08-17T04:52:35;93058.95;;;21.65;100.00
10718;BME280;13513;42.700;23.124;2023-08-17T04:55:02;93061.38;;;22.14;100.00
10718;BME280;13513;42.700;23.124;2023-08-17T04:57:30;93067.81;;;22.52;97.89
10718;BME280;13513;42.700;23.124;2023-08-17T04:59:57;93071.31;;;22.95;92.94
10718;BME280;13513;42.700;23.124;2023-08-17T05:02:24;93067.78;;;23.46;89.62
10718;BME280;13513;42.700;23.124;2023-08-17T05:04:52;93069.09;;;23.77;85.96
10718;BME280;13513;42.700;23.124;2023-08-17T05:07:19;93068.05;;;24.07;83.31
10718;BME280;13513;42.700;23.124;2023-08-17T05:09:47;93061.02;;;24.44;80.79
10718;BME280;13513;42.700;23.124;2023-08-17T05:12:14;93068.01;;;24.94;77.02
10718;BME280;13513;42.700;23.124;2023-08-17T05:14:41;93069.47;;;25.39;73.41
10718;BME280;13513;42.700;23.124;2023-08-17T05:17:09;93067.62;;;25.69;67.48
10718;BME280;13513;42.700;23.124;2023-08-17T05:19:36;93069.57;;;25.81;64.98
10718;BME280;13513;42.700;23.124;2023-08-17T05:22:09;93068.20;;;25.75;65.31
10718;BME280;13513;42.700;23.124;2023-08-17T05:24:35;93063.89;;;25.68;63.96
10718;BME280;13513;42.700;23.124;2023-08-17T05:27:02;93072.31;;;25.48;66.26
10718;BME280;13513;42.700;23.124;2023-08-17T05:29:30;93065.69;;;25.64;64.46
10718;BME280;13513;42.700;23.124;2023-08-17T05:31:59;93068.61;;;25.59;65.40
10718;BME280;13513;42.700;23.124;2023-08-17T05:34:27;93067.59;;;25.57;66.11
10718;BME280;13513;42.700;23.124;2023-08-17T05:36:54;93067.20;;;25.35;66.20
10718;BME280;13513;42.700;23.124;2023-08-17T05:39:21;93062.53;;;25.68;62.24
10718;BME280;13513;42.700;23.124;2023-08-17T05:41:49;93072.34;;;25.60;62.53
10718;BME280;13513;42.700;23.124;2023-08-17T05:44:17;93073.16;;;25.34;64.67
10718;BME280;13513;42.700;23.124;2023-08-17T05:46:45;93072.83;;;24.74;67.99
10718;BME280;13513;42.700;23.124;2023-08-17T05:49:12;93069.05;;;24.81;69.46
10718;BME280;13513;42.700;23.124;2023-08-17T05:51:40;93075.59;;;25.07;68.06
10718;BME280;13513;42.700;23.124;2023-08-17T05:54:07;93078.30;;;25.07;68.67
10718;BME280;13513;42.700;23.124;2023-08-17T05:56:35;93082.12;;;25.26;72.62
10718;BME280;13513;42.700;23.124;2023-08-17T05:59:02;93075.24;;;25.55;74.51
10718;BME280;13513;42.700;23.124;2023-08-17T06:01:30;93082.78;;;25.88;70.07
10718;BME280;13513;42.700;23.124;2023-08-17T06:03:58;93086.32;;;26.07;70.10
10718;BME280;13513;42.700;23.124;2023-08-17T06:06:25;93084.02;;;25.91;72.60
10718;BME280;13513;42.700;23.124;2023-08-17T06:08:53;93077.66;;;26.25;74.39
10718;BME280;13513;42.700;23.124;2023-08-17T06:11:20;93077.20;;;26.29;71.27
10718;BME280;13513;42.700;23.124;2023-08-17T06:13:49;93083.51;;;26.39;70.40
10718;BME280;13513;42.700;23.124;2023-08-17T06:16:17;93078.55;;;26.23;72.60
10718;BME280;13513;42.700;23.124;2023-08-17T06:18:44;93080.37;;;26.68;70.52
10718;BME280;13513;42.700;23.124;2023-08-17T06:21:12;93078.16;;;25.89;71.18
10718;BME280;13513;42.700;23.124;2023-08-17T06:23:39;93079.80;;;26.20;72.75
10718;BME280;13513;42.700;23.124;2023-08-17T06:26:07;93078.77;;;26.54;68.44
10718;BME280;13513;42.700;23.124;2023-08-17T06:28:34;93085.44;;;26.81;71.66
10718;BME280;13513;42.700;23.124;2023-08-17T06:31:02;93090.03;;;27.38;67.20
10718;BME280;13513;42.700;23.124;2023-08-17T06:33:29;93085.97;;;27.60;64.84
10718;BME280;13513;42.700;23.124;2023-08-17T06:35:56;93085.69;;;28.14;61.54
10718;BME280;13513;42.700;23.124;2023-08-17T06:38:24;93086.30;;;28.07;61.37
10718;BME280;13513;42.700;23.124;2023-08-17T06:40:52;93086.67;;;27.84;61.65
10718;BME280;13513;42.700;23.124;2023-08-17T06:43:19;93094.38;;;27.55;63.27
10718;BME280;13513;42.700;23.124;2023-08-17T06:45:47;93087.50;;;27.18;63.76
10718;BME280;13513;42.700;23.124;2023-08-17T06:48:14;93091.72;;;27.43;61.99
10718;BME280;13513;42.700;23.124;2023-08-17T06:50:42;93087.58;;;27.27;62.55
10718;BME280;13513;42.700;23.124;2023-08-17T06:53:09;93082.60;;;27.35;63.70
10718;BME280;13513;42.700;23.124;2023-08-17T06:55:36;93086.17;;;27.67;59.57
10718;BME280;13513;42.700;23.124;2023-08-17T06:58:04;93085.29;;;27.63;59.85
10718;BME280;13513;42.700;23.124;2023-08-17T07:00:31;93090.02;;;27.72;61.38
10718;BME280;13513;42.700;23.124;2023-08-17T07:03:00;93089.84;;;27.80;57.18
10718;BME280;13513;42.700;23.124;2023-08-17T07:05:27;93092.20;;;28.09;57.68
10718;BME280;13513;42.700;23.124;2023-08-17T07:07:55;93092.24;;;28.19;60.61
10718;BME280;13513;42.700;23.124;2023-08-17T07:10:24;93089.37;;;28.06;59.31
10718;BME280;13513;42.700;23.124;2023-08-17T07:12:51;93092.62;;;27.96;59.14
10718;BME280;13513;42.700;23.124;2023-08-17T07:15:19;93090.44;;;27.52;62.34
10718;BME280;13513;42.700;23.124;2023-08-17T07:17:46;93085.03;;;27.68;62.21
10718;BME280;13513;42.700;23.124;2023-08-17T07:20:14;93079.74;;;28.55;59.02
10718;BME280;13513;42.700;23.124;2023-08-17T07:22:41;93079.11;;;29.11;53.08
10718;BME280;13513;42.700;23.124;2023-08-17T07:25:09;93080.01;;;29.00;56.32
10718;BME280;13513;42.700;23.124;2023-08-17T07:27:36;93079.41;;;29.16;53.80
10718;BME280;13513;42.700;23.124;2023-08-17T07:30:04;93081.66;;;28.70;52.30
10718;BME280;13513;42.700;23.124;2023-08-17T07:32:31;93084.42;;;28.33;52.24
10718;BME280;13513;42.700;23.124;2023-08-17T07:34:59;93080.81;;;29.00;51.38
10718;BME280;13513;42.700;23.124;2023-08-17T07:37:26;93077.83;;;29.05;51.93
10718;BME280;13513;42.700;23.124;2023-08-17T07:39:55;93082.72;;;29.72;48.45
10718;BME280;13513;42.700;23.124;2023-08-17T07:42:23;93077.17;;;29.98;46.23
10718;BME280;13513;42.700;23.124;2023-08-17T07:44:50;93075.63;;;29.68;44.19
10718;BME280;13513;42.700;23.124;2023-08-17T07:47:18;93077.40;;;29.89;43.43
10718;BME280;13513;42.700;23.124;2023-08-17T07:49:45;93069.12;;;30.37;42.88
10718;BME280;13513;42.700;23.124;2023-08-17T07:52:12;93073.09;;;29.98;42.46
10718;BME280;13513;42.700;23.124;2023-08-17T07:54:40;93079.95;;;29.69;40.26
10718;BME280;13513;42.700;23.124;2023-08-17T07:57:07;93067.84;;;29.66;41.22
10718;BME280;13513;42.700;23.124;2023-08-17T07:59:35;93079.72;;;29.39;41.92
10718;BME280;13513;42.700;23.124;2023-08-17T08:02:02;93069.06;;;29.91;40.20
10718;BME280;13513;42.700;23.124;2023-08-17T08:04:29;93069.36;;;30.28;40.75
10718;BME280;13513;42.700;23.124;2023-08-17T08:06:57;93068.43;;;30.30;39.81
10718;BME280;13513;42.700;23.124;2023-08-17T08:09:24;93066.95;;;30.36;39.67
10718;BME280;13513;42.700;23.124;2023-08-17T08:11:52;93063.30;;;30.38;38.14
10718;BME280;13513;42.700;23.124;2023-08-17T08:14:19;93060.89;;;30.46;40.56
10718;BME280;13513;42.700;23.124;2023-08-17T08:16:47;93065.25;;;30.73;39.60
10718;BME280;13513;42.700;23.124;2023-08-17T08:19:14;93060.27;;;30.79;38.95
10718;BME280;13513;42.700;23.124;2023-08-17T08:21:41;93061.86;;;31.09;40.24
10718;BME280;13513;42.700;23.124;2023-08-17T08:24:09;93056.31;;;30.89;41.14
10718;BME280;13513;42.700;23.124;2023-08-17T08:26:36;93057.03;;;31.12;41.59
10718;BME280;13513;42.700;23.124;2023-08-17T08:29:04;93055.95;;;30.91;41.56
10718;BME280;13513;42.700;23.124;2023-08-17T08:31:31;93052.78;;;31.61;40.65
10718;BME280;13513;42.700;23.124;2023-08-17T08:33:59;93057.22;;;31.39;39.63
10718;BME280;13513;42.700;23.124;2023-08-17T08:36:26;93060.41;;;31.61;38.54
10718;BME280;13513;42.700;23.124;2023-08-17T08:38:54;93055.23;;;31.86;39.92
10718;BME280;13513;42.700;23.124;2023-08-17T08:41:21;93052.02;;;32.33;39.13
10718;BME280;13513;42.700;23.124;2023-08-17T08:43:49;93049.03;;;32.29;35.11
10718;BME280;13513;42.700;23.124;2023-08-17T08:46:17;93051.09;;;32.22;36.13
10718;BME280;13513;42.700;23.124;2023-08-17T08:48:46;93053.31;;;32.46;38.03
10718;BME280;13513;42.700;23.124;2023-08-17T08:51:16;93049.08;;;31.63;36.07
10718;BME280;13513;42.700;23.124;2023-08-17T08:53:46;93050.47;;;31.17;36.20
10718;BME280;13513;42.700;23.124;2023-08-17T08:56:15;93046.84;;;30.57;37.19
10718;BME280;13513;42.700;23.124;2023-08-17T08:58:45;93042.46;;;31.31;36.73
10718;BME280;13513;42.700;23.124;2023-08-17T09:01:14;93035.22;;;31.62;36.55
10718;BME280;13513;42.700;23.124;2023-08-17T09:03:45;93037.81;;;31.48;36.94
10718;BME280;13513;42.700;23.124;2023-08-17T09:06:14;93038.00;;;32.38;35.57
10718;BME280;13513;42.700;23.124;2023-08-17T09:08:44;93036.44;;;33.22;34.74
10718;BME280;13513;42.700;23.124;2023-08-17T09:11:12;93026.67;;;32.94;33.50
10718;BME280;13513;42.700;23.124;2023-08-17T09:13:39;93034.73;;;31.36;35.51
10718;BME280;13513;42.700;23.124;2023-08-17T09:16:07;93033.94;;;32.25;36.48
10718;BME280;13513;42.700;23.124;2023-08-17T09:18:35;93023.16;;;33.28;33.96
10718;BME280;13513;42.700;23.124;2023-08-17T09:21:02;93025.03;;;34.02;32.52
10718;BME280;13513;42.700;23.124;2023-08-17T09:23:30;93032.44;;;33.84;33.03
10718;BME280;13513;42.700;23.124;2023-08-17T09:25:57;93027.04;;;35.03;31.49
10718;BME280;13513;42.700;23.124;2023-08-17T09:28:25;93025.40;;;33.97;34.44
10718;BME280;13513;42.700;23.124;2023-08-17T09:31:00;93021.33;;;33.49;33.68
10718;BME280;13513;42.700;23.124;2023-08-17T09:33:31;93018.61;;;34.32;32.88
10718;BME280;13513;42.700;23.124;2023-08-17T09:36:00;93025.86;;;34.90;31.30
10718;BME280;13513;42.700;23.124;2023-08-17T09:38:28;93027.06;;;33.68;32.25
10718;BME280;13513;42.700;23.124;2023-08-17T09:40:57;93018.05;;;32.18;37.56
10718;BME280;13513;42.700;23.124;2023-08-17T09:43:25;93011.80;;;30.85;37.23
10718;BME280;13513;42.700;23.124;2023-08-17T09:45:58;93006.79;;;30.03;38.73
10718;BME280;13513;42.700;23.124;2023-08-17T09:48:25;93010.96;;;29.74;41.88
10718;BME280;13513;42.700;23.124;2023-08-17T09:50:55;93003.53;;;29.84;39.58
10718;BME280;13513;42.700;23.124;2023-08-17T09:53:24;92999.42;;;29.52;41.21
10718;BME280;13513;42.700;23.124;2023-08-17T09:55:54;92998.75;;;29.08;40.97
10718;BME280;13513;42.700;23.124;2023-08-17T09:58:24;93000.61;;;29.13;41.15
10718;BME280;13513;42.700;23.124;2023-08-17T10:00:51;93000.00;;;28.76;42.04
10718;BME280;13513;42.700;23.124;2023-08-17T10:03:19;92997.31;;;28.60;42.66
10718;BME280;13513;42.700;23.124;2023-08-17T10:05:56;92992.64;;;28.36;45.10
10718;BME280;13513;42.700;23.124;2023-08-17T10:08:23;92987.23;;;28.61;42.21
10718;BME280;13513;42.700;23.124;2023-08-17T10:10:53;92992.97;;;28.94;41.46
10718;BME280;13513;42.700;23.124;2023-08-17T10:18:49;92995.87;;;29.10;40.96
10718;BME280;13513;42.700;23.124;2023-08-17T10:21:21;92990.42;;;29.29;41.70
10718;BME280;13513;42.700;23.124;2023-08-17T10:23:45;92992.30;;;29.16;39.35
10718;BME280;13513;42.700;23.124;2023-08-17T10:26:13;92981.28;;;29.50;41.02
10718;BME280;13513;42.700;23.124;2023-08-17T10:28:40;92987.80;;;29.74;41.38
10718;BME280;13513;42.700;23.124;2023-08-17T10:31:09;92986.10;;;29.66;42.13
10718;BME280;13513;42.700;23.124;2023-08-17T10:33:38;92994.02;;;29.75;39.87
10718;BME280;13513;42.700;23.124;2023-08-17T10:36:08;92980.16;;;29.61;40.52
10718;BME280;13513;42.700;23.124;2023-08-17T10:38:36;92987.64;;;29.77;40.25
10718;BME280;13513;42.700;23.124;2023-08-17T10:41:12;92986.28;;;29.77;39.83
10718;BME280;13513;42.700;23.124;2023-08-17T10:44:05;92973.34;;;29.83;39.63
10718;BME280;13513;42.700;23.124;2023-08-17T10:46:16;92975.95;;;30.22;38.74
10718;BME280;13513;42.700;23.124;2023-08-17T10:48:46;92965.98;;;30.10;38.62
10718;BME280;13513;42.700;23.124;2023-08-17T10:51:13;92966.05;;;30.23;38.93
10718;BME280;13513;42.700;23.124;2023-08-17T10:53:45;92962.12;;;30.21;37.84
10718;BME280;13513;42.700;23.124;2023-08-17T10:56:14;92962.00;;;30.27;35.98
10718;BME280;13513;42.700;23.124;2023-08-17T10:58:44;92964.45;;;30.22;36.69
10718;BME280;13513;42.700;23.124;2023-08-17T11:01:12;92958.21;;;29.99;37.53
10718;BME280;13513;42.700;23.124;2023-08-17T11:03:42;92961.32;;;30.20;38.64
10718;BME280;13513;42.700;23.124;2023-08-17T11:06:17;92966.52;;;30.29;38.30
10718;BME280;13513;42.700;23.124;2023-08-17T11:08:57;92956.02;;;30.31;37.16
10718;BME280;13513;42.700;23.124;2023-08-17T11:11:22;92955.09;;;30.72;36.60
10718;BME280;13513;42.700;23.124;2023-08-17T11:13:52;92948.06;;;30.87;35.96
10718;BME280;13513;42.700;23.124;2023-08-17T11:16:20;92948.00;;;30.80;35.61
10718;BME280;13513;42.700;23.124;2023-08-17T11:18:48;92947.93;;;30.77;37.81
10718;BME280;13513;42.700;23.124;2023-08-17T11:21:16;92947.95;;;30.93;36.42
10718;BME280;13513;42.700;23.124;2023-08-17T11:23:45;92943.40;;;30.88;36.09
10718;BME280;13513;42.700;23.124;2023-08-17T11:26:15;92939.58;;;30.79;36.09
10718;BME280;13513;42.700;23.124;2023-08-17T11:28:41;92938.21;;;30.79;35.99
10718;BME280;13513;42.700;23.124;2023-08-17T11:31:12;92931.45;;;30.70;36.07
10718;BME280;13513;42.700;23.124;2023-08-17T11:33:42;92941.24;;;30.71;37.19
10718;BME280;13513;42.700;23.124;2023-08-17T11:36:11;92937.66;;;30.28;36.71
10718;BME280;13513;42.700;23.124;2023-08-17T11:38:43;92931.92;;;30.49;35.79
10718;BME280;13513;42.700;23.124;2023-08-17T11:41:11;92933.82;;;30.71;36.41
10718;BME280;13513;42.700;23.124;2023-08-17T11:43:42;92932.84;;;30.31;36.83
10718;BME280;13513;42.700;23.124;2023-08-17T11:46:10;92937.97;;;30.36;38.90
10718;BME280;13513;42.700;23.124;2023-08-17T11:48:39;92942.71;;;30.68;39.93
10718;BME280;13513;42.700;23.124;2023-08-17T11:51:06;92931.12;;;30.62;40.62
10718;BME280;13513;42.700;23.124;2023-08-17T11:53:37;92931.31;;;30.33;39.65
10718;BME280;13513;42.700;23.124;2023-08-17T11:56:07;92930.46;;;30.55;41.18
10718;BME280;13513;42.700;23.124;2023-08-17T11:58:46;92926.45;;;30.88;41.64
10718;BME280;13513;42.700;23.124;2023-08-17T12:01:14;92926.69;;;31.09;40.00
10718;BME280;13513;42.700;23.124;2023-08-17T12:03:42;92925.95;;;31.12;40.04
10718;BME280;13513;42.700;23.124;2023-08-17T12:06:10;92923.13;;;31.05;39.57
10718;BME280;13513;42.700;23.124;2023-08-17T12:08:43;92923.62;;;30.81;39.46
10718;BME280;13513;42.700;23.124;2023-08-17T12:11:11;92919.84;;;30.63;41.11
10718;BME280;13513;42.700;23.124;2023-08-17T12:13:39;92926.30;;;30.78;40.54
10718;BME280;13513;42.700;23.124;2023-08-17T12:16:06;92920.95;;;30.59;42.29
10718;BME280;13513;42.700;23.124;2023-08-17T12:18:36;92919.22;;;30.60;40.34
10718;BME280;13513;42.700;23.124;2023-08-17T12:21:04;92921.55;;;30.58;40.46
10718;BME280;13513;42.700;23.124;2023-08-17T12:23:33;92926.80;;;30.70;40.63
10718;BME280;13513;42.700;23.124;2023-08-17T12:26:00;92919.75;;;30.69;40.92
10718;BME280;13513;42.700;23.124;2023-08-17T12:28:28;92921.41;;;30.48;39.72
10718;BME280;13513;42.700;23.124;2023-08-17T12:31:00;92911.06;;;30.47;39.58
10718;BME280;13513;42.700;23.124;2023-08-17T12:33:28;92914.36;;;30.47;40.85
10718;BME280;13513;42.700;23.124;2023-08-17T12:35:56;92915.27;;;30.84;41.95
10718;BME280;13513;42.700;23.124;2023-08-17T12:38:24;92915.34;;;30.74;41.15
10718;BME280;13513;42.700;23.124;2023-08-17T12:40:52;92910.96;;;30.99;41.84
10718;BME280;13513;42.700;23.124;2023-08-17T12:43:20;92917.30;;;31.07;42.36
10718;BME280;13513;42.700;23.124;2023-08-17T12:45:48;92912.41;;;31.06;40.87
10718;BME280;13513;42.700;23.124;2023-08-17T12:48:15;92916.48;;;31.03;40.80
10718;BME280;13513;42.700;23.124;2023-08-17T12:50:43;92918.33;;;30.95;41.50
10718;BME280;13513;42.700;23.124;2023-08-17T12:53:10;92923.83;;;30.82;40.65
10718;BME280;13513;42.700;23.124;2023-08-17T12:55:38;92918.34;;;30.79;41.56
10718;BME280;13513;42.700;23.124;2023-08-17T12:58:09;92911.70;;;31.13;41.42
10718;BME280;13513;42.700;23.124;2023-08-17T13:00:37;92915.94;;;31.07;41.84
10718;BME280;13513;42.700;23.124;2023-08-17T13:03:04;92914.31;;;30.86;41.35
10718;BME280;13513;42.700;23.124;2023-08-17T13:05:32;92925.09;;;30.88;42.41
10718;BME280;13513;42.700;23.124;2023-08-17T13:08:00;92923.11;;;30.72;42.65